OICS  Sanandaj Airport

Add Bookmark

Iran

Status IATA
Operational SDG
Latitude Longitude
35° 14' 45" N 47° 0' 33" E
35.245899 47.009201
Local (DST + 5) UTC (GMT + 4)
Oct 22, 2014 01:04 Oct 22, 2014 09:34
Sunrise-Sunset Local UTC
Begin Civil Twilight 06:07 02:37
Sunrise 06:33 03:03
Sunset 05:39 14:09
End Civil Twilight 06:05 14:35

Current Weather

METAR Observed VFR
OICS 220900Z 19006KT CAVOK 16/04 Q1022 Wed, Oct 22, 2014 @ 09:00 UTC
(34 Minutes ago)
Visual Flight Rules
Wind Visibility Clouds Conditions
190° at 6 knots (11 kph) 10 km or more
  • Clear skies
  • No significant weather
Temperatures Readings Precipitation
Current Temp 16°C (61°F)
Dewpoint 4°C (39°F)
Humidity 45%
Altimeter 30.18"Hg
Sea Level Pressure 1022mb
Field Elevation 4504.59'
None Recorded

Additional weather within a 185.2km radius of OICS

Map ICAO Location
OICC 100.9km S (172°)
OIGK 107.4km S (175°)
OIHH 146.5km E (106°)
ORSU 157.2km W (283°)

24 Hour Weather History

Loading
-

24 Hour Weather Graphs

Loading
-

CheckWX.com is intended as a tool to help pilots better visualize weather data. It is not intended as a substitute for an official weather briefing obtained from a Flight Service Station. CheckWX.com does not meet the FAA requirements for an official pre-flight weather briefing. Therefore, it's important that pilots still call and obtain an official FSS pre-flight weather briefing.